Terminal Aerodrome Forecast
Issued by NWS

Home | Current Version | Previous Version | Text Only | Print | Product List | Glossary On
Versions: 1 2 3 4 5 6 7 8 9 10 11 12 13
310
FTUS46 KMTR 221127
TAFMRY
TAF
KMRY 221127Z 2212/2312 VRB05KT P6SM SCT050
     FM221500 29006KT P6SM SCT050
     FM222200 28011KT P6SM SCT040
     FM230100 28012G18KT P6SM SCT040
     FM230600 26009G16KT P6SM SCT030=

USA.gov is the U.S. government's official web portal to all federal, state and local government web resources and services.